Time;durP1;ratioP1;P1;durP2;ratioP2;P2;SDS_P1;SDS_P2;PMS_P1;PMS_P2;Temp;Humidity;BMP_temperature;BMP_pressure;BME280_temperature;BME280_humidity;BME280_pressure;Samples;Min_cycle;Max_cycle;Signal;HPM_P1;HPM_P2
2022/11/10 00:01:52;;;;;;;7.73;6.57;;;12.30;99.90;;;;;;5022377;28;20185;-87
2022/11/10 00:04:21;;;;;;;10.30;6.80;;;12.40;99.90;;;;;;5022267;28;20187;-86
2022/11/10 00:06:47;;;;;;;6.77;6.07;;;12.50;99.90;;;;;;5022470;28;20294;-86
2022/11/10 00:09:14;;;;;;;6.07;5.43;;;12.50;99.90;;;;;;5022241;28;20305;-86
2022/11/10 00:11:40;;;;;;;6.97;6.20;;;12.60;99.90;;;;;;5022119;28;20175;-86
2022/11/10 00:17:00;;;;;;;7.40;5.80;;;12.60;99.90;;;;;;5040766;28;20199;-86
2022/11/10 00:19:27;;;;;;;5.90;5.30;;;12.50;99.90;;;;;;5022836;28;20271;-86
2022/11/10 00:21:56;;;;;;;7.23;5.50;;;12.40;99.90;;;;;;5040553;28;20653;-86
2022/11/10 00:24:23;;;;;;;5.63;4.97;;;12.40;99.90;;;;;;5006438;28;20304;-87
2022/11/10 00:26:50;;;;;;;5.40;4.87;;;12.40;99.90;;;;;;5040606;28;20228;-86
2022/11/10 00:29:16;;;;;;;6.20;5.03;;;12.40;99.90;;;;;;5040608;28;20216;-88
2022/11/10 00:31:42;;;;;;;5.90;5.00;;;12.40;99.90;;;;;;5040533;28;20177;-86
2022/11/10 00:34:12;;;;;;;6.90;5.30;;;12.20;99.90;;;;;;5037928;28;20232;-86
2022/11/10 00:36:38;;;;;;;6.87;5.07;;;12.10;99.90;;;;;;5043347;28;20222;-86
2022/11/10 00:39:04;;;;;;;6.73;5.00;;;12.10;99.90;;;;;;5061105;28;20164;-87
2022/11/10 00:41:30;;;;;;;7.63;5.20;;;12.20;99.90;;;;;;5060636;28;20163;-87
2022/11/10 00:43:59;;;;;;;5.50;4.67;;;12.30;99.90;;;;;;5034374;28;20194;-86
2022/11/10 00:46:25;;;;;;;5.33;4.77;;;12.20;99.90;;;;;;5023148;28;20211;-86
2022/11/10 00:48:51;;;;;;;5.80;4.50;;;12.20;99.90;;;;;;5022205;28;20193;-87
2022/11/10 00:51:23;;;;;;;7.50;4.67;;;12.20;99.90;;;;;;5021923;28;20214;-87
2022/11/10 00:53:50;;;;;;;6.80;4.50;;;12.10;99.90;;;;;;5022078;28;20177;-86
2022/11/10 00:56:17;;;;;;;6.27;4.20;;;12.10;99.90;;;;;;5040052;28;20605;-86
2022/11/10 00:58:43;;;;;;;6.80;4.20;;;12.20;99.90;;;;;;5021927;28;20180;-87
2022/11/10 01:01:13;;;;;;;5.73;4.43;;;12.20;99.90;;;;;;5039832;28;20546;-86
2022/11/10 01:03:40;;;;;;;4.80;4.30;;;12.20;99.90;;;;;;5022299;28;20705;-86
2022/11/10 01:06:10;;;;;;;5.67;4.50;;;12.30;99.90;;;;;;5021698;28;20211;-87
2022/11/10 01:08:36;;;;;;;6.90;4.50;;;12.30;99.90;;;;;;5021721;28;20361;-86
2022/11/10 01:11:05;;;;;;;5.10;3.80;;;12.30;99.90;;;;;;5021643;28;20177;-86
2022/11/10 01:13:32;;;;;;;7.37;4.30;;;12.20;99.90;;;;;;5021791;28;20212;-86
2022/11/10 01:16:12;;;;;;;6.23;4.07;;;12.10;99.90;;;;;;5022040;28;20201;-86
2022/11/10 01:18:38;;;;;;;4.77;4.30;;;12.00;99.90;;;;;;5021457;28;20172;-87
2022/11/10 01:21:05;;;;;;;8.07;4.70;;;11.80;99.90;;;;;;5021544;28;20189;-87
2022/11/10 01:23:31;;;;;;;5.83;4.70;;;11.80;99.90;;;;;;5039494;28;20204;-86
2022/11/10 01:26:03;;;;;;;4.63;4.00;;;11.70;99.90;;;;;;5021235;28;20197;-87
2022/11/10 01:28:32;;;;;;;5.57;4.10;;;11.80;99.90;;;;;;5039274;28;20222;-86
2022/11/10 01:31:08;;;;;;;5.00;3.60;;;11.70;99.90;;;;;;5021459;28;20224;-86
2022/11/10 01:33:39;;;;;;;5.37;3.73;;;11.90;99.90;;;;;;5021542;28;20200;-86
2022/11/10 01:36:09;;;;;;;4.90;3.80;;;12.00;99.90;;;;;;5021160;28;20206;-86
2022/11/10 01:38:38;;;;;;;5.13;3.97;;;11.90;99.90;;;;;;5039250;28;20186;-86
2022/11/10 01:41:08;;;;;;;6.50;3.87;;;11.90;99.90;;;;;;5006114;28;20197;-86
2022/11/10 01:43:36;;;;;;;4.37;3.50;;;12.00;99.90;;;;;;5030983;28;20179;-86
2022/11/10 01:46:05;;;;;;;4.30;3.73;;;11.90;99.90;;;;;;5038198;28;20219;-86
2022/11/10 01:48:51;;;;;;;5.03;4.00;;;11.90;99.90;;;;;;5021440;28;20188;-86
2022/11/10 01:51:48;;;;;;;5.43;3.63;;;11.80;99.90;;;;;;5021426;28;20190;-86
2022/11/10 01:54:24;;;;;;;5.77;3.67;;;11.90;99.90;;;;;;5038181;28;20199;-86
2022/11/10 01:56:54;;;;;;;7.63;3.77;;;11.90;99.90;;;;;;5021270;28;20697;-88
2022/11/10 01:59:26;;;;;;;5.20;3.70;;;11.90;99.90;;;;;;5021552;28;20220;-86
2022/11/10 02:01:57;;;;;;;6.60;3.40;;;12.00;99.90;;;;;;5021624;28;20197;-86
2022/11/10 02:17:16;;;;;;;4.40;3.80;;;11.90;99.90;;;;;;5055832;28;20228;-86
2022/11/10 02:19:42;;;;;;;6.03;3.53;;;12.00;99.90;;;;;;5058365;28;20190;-86
2022/11/10 02:22:08;;;;;;;5.10;3.43;;;11.90;99.90;;;;;;5057929;28;20256;-86
2022/11/10 02:24:34;;;;;;;6.07;3.30;;;12.00;99.90;;;;;;5057437;28;20210;-86
2022/11/10 02:27:05;;;;;;;5.03;3.33;;;11.90;99.90;;;;;;5056311;28;20741;-86
2022/11/10 02:29:33;;;;;;;6.27;3.30;;;11.90;99.90;;;;;;5057225;28;20295;-86
2022/11/10 02:32:28;;;;;;;4.93;3.57;;;11.90;99.90;;;;;;5052051;28;20189;-86
2022/11/10 02:35:06;;;;;;;4.10;3.50;;;11.90;99.90;;;;;;5058095;28;20164;-87
2022/11/10 02:37:36;;;;;;;9.30;3.73;;;11.70;99.90;;;;;;5039183;28;20231;-86
2022/11/10 02:40:14;;;;;;;6.73;3.67;;;11.70;99.90;;;;;;5040250;28;20689;-87
2022/11/10 02:42:52;;;;;;;4.30;3.30;;;11.70;99.90;;;;;;5057050;28;20196;-86
2022/11/10 03:05:47;;;;;;;3.53;3.00;;;11.50;99.90;;;;;;5143144;22;20240;-85
2022/11/10 03:08:28;;;;;;;3.83;3.30;;;11.50;99.90;;;;;;5051259;28;20245;-86
2022/11/10 03:11:04;;;;;;;5.03;3.60;;;11.40;99.90;;;;;;5033330;28;20247;-86
2022/11/10 03:13:31;;;;;;;4.43;3.03;;;11.40;99.90;;;;;;5033940;28;20162;-85
2022/11/10 03:16:02;;;;;;;3.47;2.80;;;11.50;99.90;;;;;;5050867;28;20198;-87
2022/11/10 03:18:37;;;;;;;3.47;3.03;;;11.50;99.90;;;;;;5033469;28;20178;-86
2022/11/10 03:21:03;;;;;;;3.03;2.73;;;11.40;99.90;;;;;;5033175;28;20169;-86
2022/11/10 03:23:32;;;;;;;3.33;2.90;;;11.40;99.90;;;;;;5033081;28;20190;-86
2022/11/10 03:26:02;;;;;;;3.00;2.80;;;11.50;99.90;;;;;;5033064;28;20202;-86
2022/11/10 03:28:34;;;;;;;4.23;3.17;;;11.50;99.90;;;;;;5032634;28;20307;-85
2022/11/10 03:31:03;;;;;;;3.33;3.03;;;11.60;99.90;;;;;;5032506;28;20238;-86
2022/11/10 03:33:34;;;;;;;5.40;3.07;;;11.60;99.90;;;;;;5016111;28;20605;-86
2022/11/10 03:36:07;;;;;;;3.53;3.17;;;11.40;99.90;;;;;;5032884;28;20210;-85
2022/11/10 03:38:46;;;;;;;3.57;2.80;;;11.40;99.90;;;;;;5035904;28;20205;-85
2022/11/10 03:41:19;;;;;;;4.07;3.53;;;11.50;99.90;;;;;;5049348;28;20193;-85
2022/11/10 03:43:50;;;;;;;3.97;3.43;;;11.40;99.90;;;;;;5015465;28;20245;-87
2022/11/10 03:46:30;;;;;;;4.13;3.40;;;11.40;99.90;;;;;;5027975;28;20232;-86
2022/11/10 03:49:10;;;;;;;4.43;3.80;;;11.40;99.90;;;;;;5036478;28;20192;-86
2022/11/10 03:52:12;;;;;;;5.13;2.90;;;11.30;99.90;;;;;;5017011;28;20182;-86
2022/11/10 03:55:01;;;;;;;3.93;3.00;;;11.30;99.90;;;;;;5020683;28;20244;-85
2022/11/10 04:00:55;;;;;;;3.93;3.17;;;11.20;99.90;;;;;;5047063;28;20183;-85
2022/11/10 04:03:28;;;;;;;4.90;2.97;;;11.20;99.90;;;;;;5020107;28;20212;-86
2022/11/10 04:09:00;;;;;;;4.73;3.30;;;11.00;99.90;;;;;;5381882;22;20320;-86
2022/11/10 04:17:12;;;;;;;3.33;3.00;;;11.10;99.90;;;;;;5036081;28;20244;-86
2022/11/10 04:19:39;;;;;;;4.40;3.20;;;11.10;99.90;;;;;;5018711;28;20244;-86
2022/11/10 04:23:25;;;;;;;3.90;3.10;;;11.10;99.90;;;;;;5024077;28;20239;-86
2022/11/10 04:38:00;;;;;;;6.13;3.70;;;10.60;99.90;;;;;;4993993;28;20181;-86
2022/11/10 04:40:37;;;;;;;5.67;3.80;;;10.50;99.90;;;;;;5004312;28;20193;-86
2022/11/10 04:43:04;;;;;;;5.33;3.70;;;10.60;99.90;;;;;;4997351;28;20201;-86
2022/11/10 04:45:32;;;;;;;7.20;3.97;;;10.70;99.90;;;;;;4984031;28;20228;-85
2022/11/10 04:48:08;;;;;;;4.50;3.83;;;10.60;99.90;;;;;;5035081;28;20170;-86
2022/11/10 04:50:39;;;;;;;4.23;3.53;;;10.60;99.90;;;;;;5009373;28;20241;-85
2022/11/10 04:56:30;;;;;;;5.63;3.63;;;10.70;99.90;;;;;;5055862;28;20223;-86
2022/11/10 04:58:56;;;;;;;5.00;3.53;;;10.70;99.90;;;;;;5054190;28;20184;-85
2022/11/10 05:01:25;;;;;;;3.80;3.50;;;10.70;99.90;;;;;;5056887;28;20188;-85
2022/11/10 05:03:54;;;;;;;4.33;3.80;;;10.70;99.90;;;;;;5055378;28;20287;-85
2022/11/10 05:06:20;;;;;;;4.30;3.30;;;10.80;99.90;;;;;;5038491;28;20208;-85
2022/11/10 05:08:46;;;;;;;4.50;3.47;;;10.80;99.90;;;;;;5038934;28;20200;-86
2022/11/10 05:11:15;;;;;;;5.43;3.43;;;10.80;99.90;;;;;;5040297;28;20234;-85
2022/11/10 05:17:29;;;;;;;6.43;3.40;;;10.80;99.90;;;;;;4978606;28;20231;-86
2022/11/10 05:21:00;;;;;;;5.67;3.90;;;10.80;99.90;;;;;;4995113;28;20652;-85
2022/11/10 05:27:50;;;;;;;5.63;3.73;;;10.70;99.90;;;;;;5017791;28;20212;-85
2022/11/10 05:30:16;;;;;;;7.17;6.60;;;10.80;99.90;;;;;;4998829;28;20209;-86
2022/11/10 05:32:42;;;;;;;7.43;6.73;;;10.70;99.90;;;;;;5005244;28;20197;-87
2022/11/10 05:35:08;;;;;;;7.30;5.87;;;10.70;99.90;;;;;;5025421;28;20595;-87
2022/11/10 05:37:34;;;;;;;6.00;5.50;;;10.70;99.90;;;;;;5013782;28;20245;-87
2022/11/10 05:39:59;;;;;;;4.37;4.00;;;10.70;99.90;;;;;;5033595;28;20184;-86
2022/11/10 05:42:26;;;;;;;4.30;3.90;;;10.70;99.90;;;;;;5018569;28;20181;-88
2022/11/10 05:44:51;;;;;;;3.80;3.50;;;10.70;99.90;;;;;;5036419;28;20181;-87
2022/11/10 05:47:17;;;;;;;5.00;4.00;;;10.70;99.90;;;;;;5036622;28;20232;-86
2022/11/10 05:49:43;;;;;;;4.07;3.70;;;10.70;99.90;;;;;;5014811;28;20208;-96
2022/11/10 05:52:08;;;;;;;4.67;3.67;;;10.70;99.90;;;;;;5057090;28;20198;-96
2022/11/10 05:54:34;;;;;;;3.93;3.50;;;10.70;99.90;;;;;;5047351;28;20261;-96
2022/11/10 05:56:59;;;;;;;4.10;3.63;;;10.70;99.90;;;;;;5044115;28;20209;-86
2022/11/10 05:59:25;;;;;;;5.60;3.73;;;10.70;99.90;;;;;;5028043;28;20196;-86
2022/11/10 06:01:51;;;;;;;4.63;4.10;;;10.60;99.90;;;;;;5015367;28;20188;-88
2022/11/10 06:04:16;;;;;;;6.27;5.67;;;10.70;99.90;;;;;;5017475;28;20279;-87
2022/11/10 06:06:42;;;;;;;7.47;6.27;;;10.70;99.90;;;;;;5032057;28;20211;-86
2022/11/10 06:09:08;;;;;;;5.33;4.83;;;10.70;99.90;;;;;;5018997;28;20212;-86
2022/11/10 06:11:33;;;;;;;4.87;4.40;;;10.70;99.90;;;;;;5017137;28;20173;-86
2022/11/10 06:13:59;;;;;;;6.00;3.93;;;10.70;99.90;;;;;;5028204;28;20191;-86
2022/11/10 06:16:25;;;;;;;5.13;3.60;;;10.60;99.90;;;;;;5020294;28;20286;-86
2022/11/10 06:18:51;;;;;;;5.30;3.67;;;10.50;99.90;;;;;;5002213;28;20188;-90
2022/11/10 06:21:16;;;;;;;4.50;3.97;;;10.30;99.90;;;;;;5036414;28;20181;-89
2022/11/10 06:23:42;;;;;;;4.20;3.80;;;10.30;99.90;;;;;;5021820;28;20248;-87
2022/11/10 06:26:40;;;;;;;4.60;4.20;;;10.10;99.90;;;;;;5042752;28;20208;-86
2022/11/10 06:29:05;;;;;;;5.43;3.90;;;10.10;99.90;;;;;;5005500;28;20205;-86
2022/11/10 06:31:31;;;;;;;4.77;4.30;;;10.20;99.90;;;;;;5023015;28;20212;-86
2022/11/10 06:33:57;;;;;;;4.63;4.23;;;10.20;99.90;;;;;;5024779;28;20230;-86
2022/11/10 06:36:23;;;;;;;4.30;4.00;;;10.30;99.90;;;;;;5024607;28;20207;-86
2022/11/10 06:38:49;;;;;;;4.73;3.83;;;10.40;99.90;;;;;;5008262;28;20185;-86
2022/11/10 06:41:14;;;;;;;4.43;3.93;;;10.40;99.90;;;;;;5044843;28;20183;-86
2022/11/10 06:43:40;;;;;;;4.70;4.20;;;10.40;99.90;;;;;;5044214;28;20179;-86
2022/11/10 06:46:06;;;;;;;5.27;4.30;;;10.40;99.90;;;;;;5025335;28;20207;-86
2022/11/10 06:48:32;;;;;;;4.87;4.10;;;10.50;99.90;;;;;;5025881;28;20180;-86
2022/11/10 06:51:01;;;;;;;4.73;4.30;;;10.40;99.90;;;;;;5019783;28;20208;-86
2022/11/10 06:53:27;;;;;;;5.63;4.40;;;10.30;99.90;;;;;;5030934;28;20558;-86
2022/11/10 06:55:53;;;;;;;6.33;5.00;;;10.30;99.90;;;;;;5038439;28;20212;-86
2022/11/10 06:58:18;;;;;;;6.80;5.47;;;10.30;99.90;;;;;;5051640;28;20207;-87
2022/11/10 07:00:44;;;;;;;5.47;4.97;;;10.30;99.90;;;;;;5044802;28;20241;-88
2022/11/10 07:03:12;;;;;;;7.10;5.03;;;10.20;99.90;;;;;;5036626;28;20188;-91
2022/11/10 07:05:38;;;;;;;7.73;4.77;;;10.20;99.90;;;;;;5012467;28;20187;-90
2022/11/10 07:08:14;;;;;;;5.23;4.73;;;10.10;99.90;;;;;;5013555;28;20216;-86
2022/11/10 07:10:44;;;;;;;6.03;4.83;;;10.10;99.90;;;;;;5012269;28;20794;-86
2022/11/10 07:13:10;;;;;;;6.77;5.00;;;10.20;99.90;;;;;;5030255;28;20197;-86
2022/11/10 07:15:36;;;;;;;10.10;4.20;;;10.20;99.90;;;;;;5013427;28;20181;-88
2022/11/10 07:18:02;;;;;;;4.30;4.00;;;10.20;99.90;;;;;;5011920;28;20202;-87
2022/11/10 07:20:30;;;;;;;4.80;4.40;;;10.20;99.90;;;;;;5013062;28;20592;-88
2022/11/10 07:22:58;;;;;;;5.03;4.50;;;10.20;99.90;;;;;;5031281;28;20195;-90
2022/11/10 07:25:24;;;;;;;6.63;5.57;;;10.10;99.90;;;;;;5014040;28;20203;-88
2022/11/10 07:27:57;;;;;;;4.30;3.90;;;10.10;99.90;;;;;;5015325;28;20639;-92
2022/11/10 07:30:25;;;;;;;4.47;3.93;;;10.00;99.90;;;;;;5034230;28;20212;-87
2022/11/10 07:33:03;;;;;;;4.13;3.73;;;9.90;99.90;;;;;;5035468;28;20215;-92
2022/11/10 07:35:30;;;;;;;4.83;4.33;;;9.90;99.90;;;;;;5015748;28;20191;-86
2022/11/10 07:37:56;;;;;;;4.63;4.23;;;9.90;99.90;;;;;;5034664;28;20188;-90
2022/11/10 07:40:23;;;;;;;4.90;3.90;;;10.00;99.90;;;;;;5017490;28;20497;-88
2022/11/10 07:42:49;;;;;;;4.90;4.40;;;10.00;99.90;;;;;;5020783;28;20234;-86
2022/11/10 07:45:15;;;;;;;6.20;4.37;;;9.90;99.90;;;;;;5039922;28;20200;-85
2022/11/10 07:47:40;;;;;;;4.80;4.40;;;10.00;99.90;;;;;;5040451;28;20294;-86
2022/11/10 07:50:07;;;;;;;5.10;4.70;;;10.10;99.90;;;;;;5032914;28;20207;-88
2022/11/10 07:52:33;;;;;;;5.37;4.47;;;10.10;99.90;;;;;;5031948;28;20211;-89
2022/11/10 07:54:59;;;;;;;5.10;4.70;;;10.20;99.90;;;;;;5059551;28;20173;-87
2022/11/10 07:57:25;;;;;;;5.70;5.03;;;10.30;99.90;;;;;;5040135;28;20257;-87
2022/11/10 07:59:51;;;;;;;5.20;4.73;;;10.30;99.90;;;;;;5024065;28;20216;-86
2022/11/10 08:02:17;;;;;;;5.40;4.70;;;10.40;99.90;;;;;;5002578;28;20180;-88
2022/11/10 08:04:42;;;;;;;7.07;5.10;;;10.50;99.90;;;;;;5020401;28;20249;-86
2022/11/10 08:07:08;;;;;;;5.30;4.50;;;10.50;99.90;;;;;;5022822;28;20235;-87
2022/11/10 08:09:34;;;;;;;5.73;5.20;;;10.50;99.90;;;;;;5039046;28;20216;-88
2022/11/10 08:11:59;;;;;;;5.93;5.37;;;10.50;99.90;;;;;;5021741;28;20667;-87
2022/11/10 08:14:25;;;;;;;6.77;4.50;;;10.50;99.90;;;;;;5020138;28;20282;-86
2022/11/10 08:16:51;;;;;;;6.73;6.03;;;10.70;99.90;;;;;;5022546;28;20197;-90
2022/11/10 08:19:17;;;;;;;9.37;5.50;;;10.60;99.90;;;;;;5017573;28;20181;-86
2022/11/10 08:21:43;;;;;;;7.07;5.70;;;10.70;99.90;;;;;;5035237;28;20667;-86
2022/11/10 08:24:08;;;;;;;6.97;5.77;;;10.80;99.90;;;;;;5006786;28;20500;-88
2022/11/10 08:26:34;;;;;;;6.73;5.97;;;10.80;99.90;;;;;;5033374;28;20229;-86
2022/11/10 08:29:00;;;;;;;5.87;5.10;;;10.80;99.90;;;;;;5022629;28;20272;-88
2022/11/10 08:31:25;;;;;;;8.00;5.37;;;10.80;99.90;;;;;;5038237;28;20717;-88
2022/11/10 08:33:51;;;;;;;6.53;5.00;;;10.90;99.90;;;;;;5018467;28;20185;-85
2022/11/10 08:36:17;;;;;;;9.00;5.80;;;11.00;99.90;;;;;;5002656;28;20299;-88
2022/11/10 08:38:43;;;;;;;6.43;4.80;;;10.90;99.90;;;;;;5028857;28;20239;-88
2022/11/10 08:41:09;;;;;;;10.07;6.30;;;10.90;99.90;;;;;;5033092;28;20276;-88
2022/11/10 08:43:34;;;;;;;10.00;5.63;;;10.90;99.90;;;;;;5018004;28;20194;-89
2022/11/10 08:46:03;;;;;;;13.40;6.33;;;10.80;99.90;;;;;;5017587;28;20227;-91
2022/11/10 08:48:28;;;;;;;8.23;5.47;;;10.90;99.90;;;;;;5013155;28;20653;-86
2022/11/10 08:50:57;;;;;;;7.20;6.37;;;11.00;99.90;;;;;;5014196;28;20226;-89
2022/11/10 08:53:23;;;;;;;5.80;5.30;;;11.20;99.90;;;;;;5011777;28;20220;-90
2022/11/10 08:55:51;;;;;;;7.27;5.40;;;11.20;99.90;;;;;;5030963;28;20225;-87
2022/11/10 08:58:19;;;;;;;9.23;5.90;;;11.20;99.90;;;;;;5038301;28;20664;-87
2022/11/10 09:00:45;;;;;;;7.00;5.80;;;11.30;99.90;;;;;;5037293;28;20654;-93
2022/11/10 09:03:17;;;;;;;7.70;6.90;;;11.30;99.90;;;;;;5034688;28;20230;-90
2022/11/10 09:05:44;;;;;;;7.73;6.83;;;11.30;99.90;;;;;;5015679;28;20277;-89
2022/11/10 09:08:10;;;;;;;8.03;7.23;;;11.30;99.90;;;;;;5031379;28;20612;-91
2022/11/10 09:10:45;;;;;;;8.17;6.87;;;11.30;99.90;;;;;;5031402;28;20306;-86
2022/11/10 09:13:12;;;;;;;9.03;7.13;;;11.30;99.90;;;;;;5007615;28;20212;-85
2022/11/10 09:15:38;;;;;;;12.23;7.43;;;11.50;99.90;;;;;;5007110;28;20204;-93
2022/11/10 09:18:06;;;;;;;9.23;7.80;;;11.60;99.90;;;;;;5026151;28;20246;-91
2022/11/10 09:20:33;;;;;;;8.43;7.43;;;11.60;99.90;;;;;;5028074;28;20208;-89
2022/11/10 09:23:12;;;;;;;12.87;8.27;;;11.50;99.90;;;;;;5022113;28;20234;-86
2022/11/10 09:25:39;;;;;;;8.57;7.67;;;11.50;99.90;;;;;;5029535;28;21099;-90
2022/11/10 09:28:05;;;;;;;10.80;8.00;;;11.60;99.90;;;;;;5036372;28;20239;-89
2022/11/10 09:30:31;;;;;;;9.17;7.03;;;11.60;99.90;;;;;;5033332;28;20220;-86
2022/11/10 09:32:58;;;;;;;8.27;6.77;;;11.80;99.90;;;;;;5031502;28;20766;-93
2022/11/10 09:35:24;;;;;;;10.10;6.97;;;12.00;99.90;;;;;;5035187;28;20211;-90
2022/11/10 09:37:50;;;;;;;7.23;6.53;;;12.20;99.90;;;;;;5034808;28;20180;-86
2022/11/10 09:40:24;;;;;;;7.53;6.00;;;12.60;99.90;;;;;;5031726;28;20219;-95
2022/11/10 09:42:55;;;;;;;20.97;18.87;;;12.80;99.90;;;;;;5045540;28;20192;-94
2022/11/10 09:45:38;;;;;;;12.90;11.53;;;12.90;99.90;;;;;;5048715;28;20199;-91
2022/11/10 09:48:15;;;;;;;8.47;5.97;;;13.10;99.90;;;;;;5029061;28;20200;-89
2022/11/10 09:50:53;;;;;;;6.73;5.77;;;13.00;99.90;;;;;;5027661;28;20218;-93
2022/11/10 09:53:49;;;;;;;9.30;8.40;;;13.10;99.90;;;;;;5025161;28;20506;-86
2022/11/10 09:56:24;;;;;;;7.90;6.00;;;13.30;99.90;;;;;;5034266;28;20209;-88
2022/11/10 09:58:50;;;;;;;5.83;5.13;;;13.30;99.90;;;;;;5017062;28;20189;-91
2022/11/10 10:01:31;;;;;;;6.97;5.90;;;13.50;99.90;;;;;;5035339;28;20192;-86
2022/11/10 10:04:19;;;;;;;14.87;13.33;;;13.70;99.90;;;;;;5014043;28;20190;-86
2022/11/10 10:07:13;;;;;;;5.87;5.20;;;13.80;99.90;;;;;;5038112;28;20218;-85
2022/11/10 10:09:45;;;;;;;7.60;5.90;;;13.70;99.90;;;;;;5039873;28;20206;-89
2022/11/10 10:12:26;;;;;;;16.00;14.07;;;13.80;99.90;;;;;;5037824;28;20178;-87
2022/11/10 10:14:55;;;;;;;7.93;6.17;;;13.90;99.90;;;;;;5038410;28;20237;-86
2022/11/10 10:17:26;;;;;;;5.87;5.00;;;14.20;99.90;;;;;;5021155;28;21276;-88
2022/11/10 10:19:55;;;;;;;4.43;4.07;;;14.40;99.90;;;;;;5037503;28;20272;-83
2022/11/10 10:22:45;;;;;;;7.40;4.93;;;14.30;99.90;;;;;;5035549;28;20199;-86
2022/11/10 10:25:20;;;;;;;5.37;4.47;;;14.50;99.90;;;;;;5029994;28;20205;-86
2022/11/10 10:27:49;;;;;;;5.77;5.00;;;14.60;99.90;;;;;;5031850;28;20219;-89
2022/11/10 10:30:18;;;;;;;8.23;4.70;;;14.60;99.90;;;;;;5031358;28;20213;-89
2022/11/10 10:32:44;;;;;;;6.73;4.70;;;14.60;99.90;;;;;;5031341;28;20277;-87
2022/11/10 10:35:17;;;;;;;6.20;5.03;;;14.80;99.90;;;;;;5027687;28;20268;-87
2022/11/10 10:37:44;;;;;;;5.60;4.57;;;14.90;99.90;;;;;;5034962;28;20227;-93
2022/11/10 10:40:19;;;;;;;7.20;4.50;;;14.70;99.90;;;;;;5037512;28;20208;-87
2022/11/10 10:42:45;;;;;;;5.17;4.23;;;14.50;99.90;;;;;;5037706;28;20181;-92
2022/11/10 10:45:17;;;;;;;4.70;4.07;;;14.70;99.90;;;;;;5044091;28;20222;-87
2022/11/10 10:47:44;;;;;;;4.90;3.97;;;15.10;99.90;;;;;;5050840;28;20213;-87
2022/11/10 10:50:24;;;;;;;4.83;3.97;;;15.30;99.80;;;;;;5051259;28;20277;-89
2022/11/10 10:53:12;;;;;;;6.13;4.40;;;15.40;98.90;;;;;;5031647;28;20231;-86
2022/11/10 10:56:02;;;;;;;4.73;4.23;;;15.60;98.10;;;;;;5050199;28;20188;-88
2022/11/10 10:58:29;;;;;;;5.37;3.80;;;15.60;97.90;;;;;;5031036;28;20208;-87
2022/11/10 11:01:16;;;;;;;7.83;4.23;;;15.50;97.20;;;;;;5031160;28;20527;-91
2022/11/10 11:03:50;;;;;;;4.90;3.77;;;15.20;97.80;;;;;;5050256;28;20193;-86
2022/11/10 11:06:16;;;;;;;6.67;3.27;;;15.40;95.00;;;;;;5049543;28;20243;-90
2022/11/10 11:09:14;;;;;;;3.90;3.47;;;15.50;95.20;;;;;;5050125;28;20284;-95
2022/11/10 11:11:45;;;;;;;5.33;3.50;;;15.60;94.10;;;;;;5048055;28;20628;-94
2022/11/10 11:14:14;;;;;;;4.70;3.50;;;15.80;92.40;;;;;;5032078;28;20190;-86
2022/11/10 11:17:13;;;;;;;5.47;3.50;;;15.70;91.80;;;;;;5048782;28;20216;-91
2022/11/10 11:19:39;;;;;;;3.93;3.20;;;15.70;92.50;;;;;;5044585;28;20198;-89
2022/11/10 11:22:26;;;;;;;4.23;3.57;;;15.90;91.90;;;;;;5046787;28;20203;-91
2022/11/10 11:25:40;;;;;;;4.50;3.80;;;15.80;91.50;;;;;;5043266;28;20196;-90
2022/11/10 11:28:39;;;;;;;3.83;3.47;;;15.80;92.30;;;;;;5033295;28;20196;-91
2022/11/10 11:31:10;;;;;;;3.73;2.77;;;15.90;90.70;;;;;;5037720;28;20207;-90
2022/11/10 11:33:57;;;;;;;5.27;2.80;;;16.20;88.30;;;;;;5038421;28;20483;-90
2022/11/10 11:36:52;;;;;;;5.80;3.30;;;16.40;88.50;;;;;;5040345;28;20206;-90
2022/11/10 11:39:46;;;;;;;3.93;2.90;;;16.50;86.60;;;;;;5039824;28;20210;-89
2022/11/10 11:42:42;;;;;;;5.53;3.00;;;16.80;84.40;;;;;;5038677;28;20240;-91
2022/11/10 11:45:21;;;;;;;5.10;2.83;;;16.40;83.00;;;;;;5039444;28;20181;-90
2022/11/10 11:47:52;;;;;;;3.67;2.73;;;16.50;83.40;;;;;;5020960;28;20204;-91
2022/11/10 11:50:25;;;;;;;5.63;3.03;;;16.50;85.80;;;;;;5037143;28;20230;-90
2022/11/10 11:53:26;;;;;;;4.40;3.27;;;16.70;82.90;;;;;;5032977;28;20196;-90
2022/11/10 11:56:43;;;;;;;4.80;2.97;;;16.60;82.90;;;;;;5036758;28;20244;-90
2022/11/10 11:59:42;;;;;;;6.13;3.27;;;16.70;86.10;;;;;;4984978;28;20198;-89
2022/11/10 12:02:46;;;;;;;5.90;3.10;;;17.10;81.10;;;;;;5036399;28;20196;-91
2022/11/10 12:05:27;;;;;;;3.77;3.10;;;17.20;81.60;;;;;;5037741;28;20188;-90
2022/11/10 12:08:16;;;;;;;5.87;3.00;;;17.30;80.10;;;;;;5039037;28;20224;-92
2022/11/10 12:11:02;;;;;;;4.53;2.80;;;17.40;79.90;;;;;;5043028;28;20203;-90
2022/11/10 12:13:43;;;;;;;3.20;2.90;;;17.30;78.60;;;;;;5042440;28;20186;-90
2022/11/10 12:16:18;;;;;;;4.50;2.83;;;17.50;78.40;;;;;;5020435;28;20280;-87
2022/11/10 12:19:20;;;;;;;2.92;2.63;;;17.60;78.60;;;;;;5035262;28;20204;-87
2022/11/10 12:22:07;;;;;;;4.25;2.63;;;17.90;78.30;;;;;;5038510;28;20194;-88
2022/11/10 12:24:36;;;;;;;3.75;2.75;;;18.10;73.10;;;;;;5021964;28;20192;-86
2022/11/10 12:27:07;;;;;;;3.60;2.60;;;18.30;71.90;;;;;;5037752;28;20204;-87
2022/11/10 12:29:37;;;;;;;5.80;2.75;;;18.20;72.70;;;;;;5021562;28;20204;-88
2022/11/10 12:32:11;;;;;;;2.80;2.60;;;18.10;71.20;;;;;;5018386;28;20195;-89
2022/11/10 12:34:48;;;;;;;4.32;2.83;;;18.30;68.00;;;;;;5023127;28;20187;-90
2022/11/10 12:37:35;;;;;;;6.90;3.40;;;18.40;69.80;;;;;;5023966;28;20215;-91
2022/11/10 12:40:13;;;;;;;4.53;3.20;;;18.10;69.60;;;;;;5022141;28;20870;-85
2022/11/10 12:42:41;;;;;;;4.88;2.80;;;18.10;72.10;;;;;;5021425;28;20184;-88
2022/11/10 12:45:18;;;;;;;2.90;2.60;;;17.70;71.30;;;;;;5038358;28;20565;-88
2022/11/10 12:47:45;;;;;;;3.13;2.47;;;17.80;71.30;;;;;;5033520;28;20908;-87
2022/11/10 12:50:35;;;;;;;3.35;2.65;;;17.60;71.60;;;;;;5034763;28;20252;-86
2022/11/10 12:53:40;;;;;;;5.65;2.90;;;17.40;74.90;;;;;;5032733;28;20606;-89
2022/11/10 12:56:26;;;;;;;6.05;3.08;;;17.40;75.30;;;;;;5015542;28;21886;-86
2022/11/10 12:59:14;;;;;;;6.18;2.95;;;18.00;70.70;;;;;;5035660;28;20194;-87
2022/11/10 13:01:44;;;;;;;4.57;2.92;;;17.90;71.50;;;;;;5037847;28;20250;-87
2022/11/10 13:04:14;;;;;;;4.10;3.33;;;17.90;71.10;;;;;;5038439;28;20195;-87
2022/11/10 13:06:48;;;;;;;4.57;2.80;;;18.10;69.50;;;;;;5033114;28;20204;-89
2022/11/10 13:09:36;;;;;;;4.63;2.92;;;18.30;70.60;;;;;;5014075;28;20213;-87
2022/11/10 13:12:22;;;;;;;3.47;2.80;;;18.50;69.40;;;;;;5029363;28;20235;-86
2022/11/10 13:14:48;;;;;;;5.50;3.00;;;18.40;69.00;;;;;;5017224;28;20219;-87
2022/11/10 13:17:25;;;;;;;3.25;2.80;;;18.70;67.80;;;;;;5017924;28;20213;-86
2022/11/10 13:19:52;;;;;;;4.32;2.70;;;18.40;63.90;;;;;;5032741;28;20199;-86
2022/11/10 13:22:42;;;;;;;5.20;3.22;;;18.50;64.20;;;;;;5030534;28;20571;-87
2022/11/10 13:25:37;;;;;;;4.47;2.97;;;18.60;64.90;;;;;;5031783;28;21818;-87
2022/11/10 13:28:04;;;;;;;6.95;2.92;;;18.50;66.00;;;;;;5024161;28;20205;-85
2022/11/10 13:30:36;;;;;;;4.47;2.67;;;18.60;62.40;;;;;;5020852;28;20216;-86
2022/11/10 13:33:31;;;;;;;3.13;2.83;;;18.70;61.70;;;;;;5040972;28;20216;-91
2022/11/10 13:35:57;;;;;;;4.82;2.50;;;18.70;62.80;;;;;;5031768;28;20235;-88
2022/11/10 13:38:35;;;;;;;3.40;2.90;;;19.00;63.00;;;;;;5047767;28;20218;-86
2022/11/10 13:41:16;;;;;;;4.63;2.88;;;19.10;61.70;;;;;;5033832;28;20273;-86
2022/11/10 13:43:53;;;;;;;4.20;3.13;;;19.10;62.70;;;;;;5033212;28;20188;-88
2022/11/10 13:46:31;;;;;;;6.63;3.20;;;18.80;63.10;;;;;;5033606;28;20234;-86
2022/11/10 13:49:18;;;;;;;4.95;3.10;;;18.60;63.70;;;;;;5033441;28;20544;-87
2022/11/10 13:51:57;;;;;;;4.20;3.00;;;18.30;64.80;;;;;;5036587;28;20205;-88
2022/11/10 13:54:37;;;;;;;3.75;2.80;;;18.20;64.70;;;;;;5038884;28;20196;-86
2022/11/10 13:57:23;;;;;;;4.07;2.83;;;18.50;61.10;;;;;;5037178;28;21180;-87
2022/11/10 13:59:55;;;;;;;3.90;2.83;;;18.10;63.50;;;;;;5020070;28;20292;-87
2022/11/10 14:02:33;;;;;;;3.15;2.65;;;17.80;65.40;;;;;;5016592;28;20261;-87
2022/11/10 14:05:03;;;;;;;4.55;3.00;;;17.70;67.00;;;;;;5039616;28;20246;-88
2022/11/10 14:07:36;;;;;;;4.25;2.85;;;17.80;66.00;;;;;;5034369;28;20208;-88
2022/11/10 14:10:16;;;;;;;5.15;3.22;;;17.70;65.90;;;;;;5013973;28;20439;-86
2022/11/10 14:13:04;;;;;;;6.80;3.55;;;17.60;67.10;;;;;;5031576;28;20188;-86
2022/11/10 14:15:43;;;;;;;5.25;3.08;;;17.40;69.80;;;;;;5015799;28;20925;-86
2022/11/10 14:18:21;;;;;;;6.20;3.22;;;17.20;69.40;;;;;;5015222;28;20256;-88
2022/11/10 14:20:55;;;;;;;3.08;2.85;;;17.20;69.80;;;;;;5014212;28;20200;-87
2022/11/10 14:23:24;;;;;;;4.47;2.92;;;17.00;70.10;;;;;;5029932;28;20223;-87
2022/11/10 14:25:57;;;;;;;4.35;3.25;;;17.00;69.10;;;;;;5030175;28;20235;-85
2022/11/10 14:28:29;;;;;;;5.32;3.17;;;16.70;72.20;;;;;;5030197;28;20185;-87